Hlavní strana
METAR-TAF:

METAR-TAF

Letiště :

Östersund-Frösön, Švédsko

zeměpisná šířka: 63-11N, zeměpisná délka: 014-30E, výška: 376 m

Aktuální stav počasí

Zpráva byla vytvořena před 20 minutami, v 11:50 UTC
Jižní vítr 9 kt
Teplota 18°C
Vlhkost vzduchu 28%
Tlak 1021 hPa
Viditelnost 10 km a více
Žádná oblačnost pod 1500 m, nevyskytují se cumulonimby.

METAR: ESNZ 231150Z 19009KT CAVOK 18/M01 Q1021

Čas: 14:10 (12:10 UTC)

Předpověď počasí

Zpráva byla vytvořena před 40 minutami, v 11:30 UTC
Předpověď platná od 23 v 12 UTC do 23 v 21 UTC
Jižní vítr 5 kt
Viditelnost 10 km a více
Žádná oblačnost pod 1500 m, nevyskytují se cumulonimby.

TAF: ESNZ 231130Z 2312/2321 18005KT CAVOK

Stav a předpovědi počasí z více než 4 000 letišť (zprávy METAR a TAF).

Červené a žluté tečky na mapě představují dostupné meteorologické stanice.

Když kurzor umístíte na tečku, zobrazí se název stanice.

Pak kliknutím zobrazíte stav a předpověď počasí.

Chcete-li změnit mapu, kliknutím na zelené tlačítko se znaménkem +mapu přiblížíte, kliknutím na zelené tlačítko se znaménkem – mapu oddálíte a kliknutím na zelené šipky přejdete na sousední mapy.


METAR-TAF: